sensor_id;sensor_type;location;lat;lon;timestamp;P1;durP1;ratioP1;P2;durP2;ratioP2
72053;SDS011;59918;51.280;7.950;2023-05-10T00:01:23;1.00;;;1.00;;
72053;SDS011;59918;51.280;7.950;2023-05-10T00:03:49;1.10;;;1.00;;
72053;SDS011;59918;51.280;7.950;2023-05-10T00:06:14;1.83;;;1.10;;
72053;SDS011;59918;51.280;7.950;2023-05-10T00:08:39;3.05;;;1.08;;
72053;SDS011;59918;51.280;7.950;2023-05-10T00:11:04;1.35;;;1.10;;
72053;SDS011;59918;51.280;7.950;2023-05-10T00:13:34;1.75;;;1.27;;
72053;SDS011;59918;51.280;7.950;2023-05-10T00:15:59;1.05;;;1.05;;
72053;SDS011;59918;51.280;7.950;2023-05-10T00:18:24;1.50;;;1.40;;
72053;SDS011;59918;51.280;7.950;2023-05-10T00:20:49;1.70;;;1.20;;
72053;SDS011;59918;51.280;7.950;2023-05-10T00:23:15;4.57;;;2.00;;
72053;SDS011;59918;51.280;7.950;2023-05-10T00:25:40;2.05;;;1.95;;
72053;SDS011;59918;51.280;7.950;2023-05-10T00:28:12;2.35;;;1.80;;
72053;SDS011;59918;51.280;7.950;2023-05-10T00:30:37;2.05;;;1.90;;
72053;SDS011;59918;51.280;7.950;2023-05-10T00:33:02;1.90;;;1.80;;
72053;SDS011;59918;51.280;7.950;2023-05-10T00:35:27;1.58;;;1.38;;
72053;SDS011;59918;51.280;7.950;2023-05-10T00:37:53;1.30;;;1.20;;
72053;SDS011;59918;51.280;7.950;2023-05-10T00:40:21;1.52;;;1.42;;
72053;SDS011;59918;51.280;7.950;2023-05-10T00:42:46;1.20;;;1.15;;
72053;SDS011;59918;51.280;7.950;2023-05-10T00:45:11;1.67;;;0.93;;
72053;SDS011;59918;51.280;7.950;2023-05-10T00:47:37;2.28;;;1.20;;
72053;SDS011;59918;51.280;7.950;2023-05-10T00:50:03;1.23;;;1.13;;
72053;SDS011;59918;51.280;7.950;2023-05-10T00:52:29;2.15;;;1.50;;
72053;SDS011;59918;51.280;7.950;2023-05-10T00:54:58;1.63;;;1.23;;
72053;SDS011;59918;51.280;7.950;2023-05-10T00:57:23;2.53;;;1.30;;
72053;SDS011;59918;51.280;7.950;2023-05-10T00:59:49;1.30;;;1.20;;
72053;SDS011;59918;51.280;7.950;2023-05-10T01:02:15;1.00;;;1.00;;
72053;SDS011;59918;51.280;7.950;2023-05-10T01:04:40;1.10;;;0.90;;
72053;SDS011;59918;51.280;7.950;2023-05-10T01:07:05;0.90;;;0.90;;
72053;SDS011;59918;51.280;7.950;2023-05-10T01:09:40;0.90;;;0.90;;
72053;SDS011;59918;51.280;7.950;2023-05-10T01:12:05;1.00;;;0.90;;
72053;SDS011;59918;51.280;7.950;2023-05-10T01:14:34;0.80;;;0.80;;
72053;SDS011;59918;51.280;7.950;2023-05-10T01:17:00;1.33;;;1.20;;
72053;SDS011;59918;51.280;7.950;2023-05-10T01:19:26;1.35;;;0.82;;
72053;SDS011;59918;51.280;7.950;2023-05-10T01:33:26;0.88;;;0.88;;
72053;SDS011;59918;51.280;7.950;2023-05-10T01:43:43;0.90;;;0.90;;
72053;SDS011;59918;51.280;7.950;2023-05-10T01:46:35;1.25;;;0.93;;
72053;SDS011;59918;51.280;7.950;2023-05-10T01:49:02;0.95;;;0.95;;
72053;SDS011;59918;51.280;7.950;2023-05-10T01:54:38;2.28;;;0.80;;
72053;SDS011;59918;51.280;7.950;2023-05-10T01:57:12;0.80;;;0.70;;
72053;SDS011;59918;51.280;7.950;2023-05-10T01:59:39;0.77;;;0.70;;
72053;SDS011;59918;51.280;7.950;2023-05-10T02:02:13;3.13;;;1.02;;
72053;SDS011;59918;51.280;7.950;2023-05-10T02:04:40;0.90;;;0.90;;
72053;SDS011;59918;51.280;7.950;2023-05-10T02:07:07;0.88;;;0.88;;
72053;SDS011;59918;51.280;7.950;2023-05-10T02:09:36;1.50;;;1.15;;
72053;SDS011;59918;51.280;7.950;2023-05-10T02:12:05;1.30;;;1.20;;
72053;SDS011;59918;51.280;7.950;2023-05-10T02:14:35;2.33;;;1.33;;
72053;SDS011;59918;51.280;7.950;2023-05-10T02:17:02;1.17;;;1.08;;
72053;SDS011;59918;51.280;7.950;2023-05-10T02:19:30;1.38;;;1.20;;
72053;SDS011;59918;51.280;7.950;2023-05-10T02:21:59;1.50;;;1.40;;
72053;SDS011;59918;51.280;7.950;2023-05-10T02:24:25;1.13;;;1.10;;
72053;SDS011;59918;51.280;7.950;2023-05-10T02:26:52;1.00;;;1.00;;
72053;SDS011;59918;51.280;7.950;2023-05-10T02:29:26;1.50;;;1.40;;
72053;SDS011;59918;51.280;7.950;2023-05-10T02:31:53;1.42;;;1.33;;
72053;SDS011;59918;51.280;7.950;2023-05-10T02:34:20;1.58;;;1.48;;
72053;SDS011;59918;51.280;7.950;2023-05-10T02:36:50;2.33;;;1.15;;
72053;SDS011;59918;51.280;7.950;2023-05-10T02:39:17;1.70;;;1.60;;
72053;SDS011;59918;51.280;7.950;2023-05-10T02:41:48;1.75;;;1.63;;
72053;SDS011;59918;51.280;7.950;2023-05-10T02:44:15;1.65;;;1.55;;
72053;SDS011;59918;51.280;7.950;2023-05-10T02:46:43;2.33;;;1.75;;
72053;SDS011;59918;51.280;7.950;2023-05-10T02:49:15;1.45;;;1.23;;
72053;SDS011;59918;51.280;7.950;2023-05-10T02:51:41;1.92;;;1.50;;
72053;SDS011;59918;51.280;7.950;2023-05-10T02:54:18;1.52;;;1.30;;
72053;SDS011;59918;51.280;7.950;2023-05-10T02:56:50;2.03;;;1.80;;
72053;SDS011;59918;51.280;7.950;2023-05-10T02:59:18;2.15;;;1.80;;
72053;SDS011;59918;51.280;7.950;2023-05-10T03:01:43;2.17;;;1.83;;
72053;SDS011;59918;51.280;7.950;2023-05-10T03:04:12;2.15;;;1.92;;
72053;SDS011;59918;51.280;7.950;2023-05-10T03:06:37;2.05;;;1.85;;
72053;SDS011;59918;51.280;7.950;2023-05-10T03:09:02;2.17;;;1.98;;
72053;SDS011;59918;51.280;7.950;2023-05-10T03:20:20;2.03;;;1.67;;
72053;SDS011;59918;51.280;7.950;2023-05-10T03:23:01;1.42;;;1.33;;
72053;SDS011;59918;51.280;7.950;2023-05-10T03:25:35;1.50;;;1.40;;
72053;SDS011;59918;51.280;7.950;2023-05-10T03:28:02;2.33;;;1.60;;
72053;SDS011;59918;51.280;7.950;2023-05-10T03:30:29;1.88;;;1.38;;
72053;SDS011;59918;51.280;7.950;2023-05-10T03:32:55;1.60;;;1.50;;
72053;SDS011;59918;51.280;7.950;2023-05-10T03:35:23;3.30;;;1.52;;
72053;SDS011;59918;51.280;7.950;2023-05-10T03:37:49;1.63;;;1.52;;
72053;SDS011;59918;51.280;7.950;2023-05-10T03:40:14;1.67;;;1.40;;
72053;SDS011;59918;51.280;7.950;2023-05-10T03:42:39;1.38;;;1.27;;
72053;SDS011;59918;51.280;7.950;2023-05-10T03:45:05;1.73;;;1.60;;
72053;SDS011;59918;51.280;7.950;2023-05-10T03:47:31;1.58;;;1.48;;
72053;SDS011;59918;51.280;7.950;2023-05-10T03:50:03;6.55;;;2.75;;
72053;SDS011;59918;51.280;7.950;2023-05-10T03:52:29;2.40;;;2.20;;
72053;SDS011;59918;51.280;7.950;2023-05-10T03:55:02;2.50;;;2.30;;
72053;SDS011;59918;51.280;7.950;2023-05-10T03:57:27;5.50;;;3.10;;
72053;SDS011;59918;51.280;7.950;2023-05-10T03:59:53;5.05;;;3.40;;
72053;SDS011;59918;51.280;7.950;2023-05-10T04:02:18;4.00;;;3.53;;
72053;SDS011;59918;51.280;7.950;2023-05-10T04:04:43;5.43;;;3.45;;
72053;SDS011;59918;51.280;7.950;2023-05-10T04:07:11;4.40;;;4.00;;
72053;SDS011;59918;51.280;7.950;2023-05-10T04:09:37;4.60;;;3.70;;
72053;SDS011;59918;51.280;7.950;2023-05-10T04:12:02;3.22;;;2.97;;
72053;SDS011;59918;51.280;7.950;2023-05-10T04:14:27;3.78;;;3.47;;
72053;SDS011;59918;51.280;7.950;2023-05-10T04:16:53;3.58;;;3.28;;
72053;SDS011;59918;51.280;7.950;2023-05-10T04:19:18;3.38;;;3.08;;
72053;SDS011;59918;51.280;7.950;2023-05-10T04:21:43;3.50;;;3.25;;
72053;SDS011;59918;51.280;7.950;2023-05-10T04:24:11;3.83;;;3.50;;
72053;SDS011;59918;51.280;7.950;2023-05-10T04:26:37;5.25;;;3.55;;
72053;SDS011;59918;51.280;7.950;2023-05-10T04:29:02;4.50;;;3.33;;
72053;SDS011;59918;51.280;7.950;2023-05-10T04:31:27;3.85;;;2.92;;
72053;SDS011;59918;51.280;7.950;2023-05-10T04:33:52;3.35;;;3.13;;
72053;SDS011;59918;51.280;7.950;2023-05-10T04:36:18;3.22;;;2.92;;
72053;SDS011;59918;51.280;7.950;2023-05-10T04:38:43;2.70;;;2.50;;
72053;SDS011;59918;51.280;7.950;2023-05-10T04:41:11;2.67;;;2.47;;
72053;SDS011;59918;51.280;7.950;2023-05-10T04:43:37;2.38;;;2.13;;
72053;SDS011;59918;51.280;7.950;2023-05-10T04:46:03;2.72;;;2.33;;
72053;SDS011;59918;51.280;7.950;2023-05-10T04:48:29;3.17;;;2.40;;
72053;SDS011;59918;51.280;7.950;2023-05-10T04:50:54;2.58;;;2.38;;
72053;SDS011;59918;51.280;7.950;2023-05-10T04:53:19;2.50;;;2.22;;
72053;SDS011;59918;51.280;7.950;2023-05-10T04:55:47;2.45;;;2.25;;
72053;SDS011;59918;51.280;7.950;2023-05-10T04:58:13;2.47;;;2.28;;
72053;SDS011;59918;51.280;7.950;2023-05-10T05:00:38;2.53;;;2.33;;
72053;SDS011;59918;51.280;7.950;2023-05-10T05:03:04;2.55;;;2.38;;
72053;SDS011;59918;51.280;7.950;2023-05-10T05:05:29;4.10;;;2.35;;
72053;SDS011;59918;51.280;7.950;2023-05-10T05:07:54;2.78;;;2.58;;
72053;SDS011;59918;51.280;7.950;2023-05-10T05:10:19;2.38;;;2.17;;
72053;SDS011;59918;51.280;7.950;2023-05-10T05:12:51;2.17;;;1.98;;
72053;SDS011;59918;51.280;7.950;2023-05-10T05:15:16;2.22;;;2.05;;
72053;SDS011;59918;51.280;7.950;2023-05-10T05:17:41;2.53;;;2.33;;
72053;SDS011;59918;51.280;7.950;2023-05-10T05:20:07;2.50;;;2.17;;
72053;SDS011;59918;51.280;7.950;2023-05-10T05:22:36;2.60;;;2.40;;
72053;SDS011;59918;51.280;7.950;2023-05-10T05:25:02;4.88;;;2.47;;
72053;SDS011;59918;51.280;7.950;2023-05-10T05:27:27;3.50;;;2.45;;
72053;SDS011;59918;51.280;7.950;2023-05-10T05:29:53;5.35;;;1.95;;
72053;SDS011;59918;51.280;7.950;2023-05-10T05:32:19;2.83;;;2.63;;
72053;SDS011;59918;51.280;7.950;2023-05-10T05:34:44;3.25;;;2.35;;
72053;SDS011;59918;51.280;7.950;2023-05-10T05:37:13;3.67;;;2.65;;
72053;SDS011;59918;51.280;7.950;2023-05-10T05:39:48;4.25;;;2.63;;
72053;SDS011;59918;51.280;7.950;2023-05-10T05:42:13;1.92;;;1.73;;
72053;SDS011;59918;51.280;7.950;2023-05-10T05:44:39;2.40;;;1.75;;
72053;SDS011;59918;51.280;7.950;2023-05-10T05:47:04;2.22;;;2.03;;
72053;SDS011;59918;51.280;7.950;2023-05-10T05:49:30;2.03;;;1.90;;
72053;SDS011;59918;51.280;7.950;2023-05-10T05:52:02;3.15;;;1.38;;
72053;SDS011;59918;51.280;7.950;2023-05-10T05:54:28;1.50;;;1.40;;
72053;SDS011;59918;51.280;7.950;2023-05-10T05:56:54;2.60;;;2.10;;
72053;SDS011;59918;51.280;7.950;2023-05-10T05:59:20;3.13;;;2.28;;
72053;SDS011;59918;51.280;7.950;2023-05-10T06:01:51;2.42;;;2.22;;
72053;SDS011;59918;51.280;7.950;2023-05-10T06:04:17;2.50;;;2.30;;
72053;SDS011;59918;51.280;7.950;2023-05-10T06:06:42;4.03;;;2.53;;
72053;SDS011;59918;51.280;7.950;2023-05-10T06:09:07;3.00;;;2.20;;
72053;SDS011;59918;51.280;7.950;2023-05-10T06:11:36;4.18;;;2.95;;
72053;SDS011;59918;51.280;7.950;2023-05-10T06:14:01;6.00;;;4.32;;
72053;SDS011;59918;51.280;7.950;2023-05-10T06:16:27;7.03;;;4.18;;
72053;SDS011;59918;51.280;7.950;2023-05-10T06:18:52;10.38;;;6.13;;
72053;SDS011;59918;51.280;7.950;2023-05-10T06:21:18;16.60;;;7.70;;
72053;SDS011;59918;51.280;7.950;2023-05-10T06:23:43;13.10;;;8.45;;
72053;SDS011;59918;51.280;7.950;2023-05-10T06:26:08;18.70;;;11.30;;
72053;SDS011;59918;51.280;7.950;2023-05-10T06:28:39;12.40;;;9.82;;
72053;SDS011;59918;51.280;7.950;2023-05-10T06:31:05;15.00;;;9.32;;
72053;SDS011;59918;51.280;7.950;2023-05-10T06:33:31;15.90;;;9.65;;
72053;SDS011;59918;51.280;7.950;2023-05-10T06:38:30;19.90;;;11.20;;
72053;SDS011;59918;51.280;7.950;2023-05-10T06:40:55;14.77;;;10.52;;
72053;SDS011;59918;51.280;7.950;2023-05-10T06:43:26;14.85;;;10.52;;
72053;SDS011;59918;51.280;7.950;2023-05-10T06:45:52;17.33;;;11.20;;
72053;SDS011;59918;51.280;7.950;2023-05-10T06:48:17;17.05;;;11.40;;
72053;SDS011;59918;51.280;7.950;2023-05-10T06:50:42;20.85;;;12.18;;
72053;SDS011;59918;51.280;7.950;2023-05-10T06:53:07;22.40;;;12.32;;
72053;SDS011;59918;51.280;7.950;2023-05-10T06:58:07;18.35;;;10.95;;
72053;SDS011;59918;51.280;7.950;2023-05-10T07:00:32;16.27;;;10.73;;
72053;SDS011;59918;51.280;7.950;2023-05-10T07:03:04;21.57;;;13.37;;
72053;SDS011;59918;51.280;7.950;2023-05-10T07:05:29;15.05;;;11.68;;
72053;SDS011;59918;51.280;7.950;2023-05-10T07:07:54;18.95;;;12.18;;
72053;SDS011;59918;51.280;7.950;2023-05-10T07:10:19;19.35;;;12.68;;
72053;SDS011;59918;51.280;7.950;2023-05-10T07:12:51;19.25;;;12.82;;
72053;SDS011;59918;51.280;7.950;2023-05-10T07:15:16;14.30;;;11.45;;
72053;SDS011;59918;51.280;7.950;2023-05-10T07:17:41;16.88;;;11.98;;
72053;SDS011;59918;51.280;7.950;2023-05-10T07:20:07;15.10;;;11.27;;
72053;SDS011;59918;51.280;7.950;2023-05-10T07:22:33;15.93;;;11.82;;
72053;SDS011;59918;51.280;7.950;2023-05-10T07:25:01;13.95;;;10.63;;
72053;SDS011;59918;51.280;7.950;2023-05-10T07:27:26;16.20;;;11.05;;
72053;SDS011;59918;51.280;7.950;2023-05-10T07:29:51;17.25;;;12.25;;
72053;SDS011;59918;51.280;7.950;2023-05-10T07:32:16;15.90;;;10.73;;
72053;SDS011;59918;51.280;7.950;2023-05-10T07:34:42;23.77;;;12.40;;
72053;SDS011;59918;51.280;7.950;2023-05-10T07:37:07;14.55;;;10.85;;
72053;SDS011;59918;51.280;7.950;2023-05-10T07:39:32;14.60;;;11.13;;
72053;SDS011;59918;51.280;7.950;2023-05-10T07:42:01;16.30;;;11.52;;
72053;SDS011;59918;51.280;7.950;2023-05-10T07:44:26;16.95;;;10.85;;
72053;SDS011;59918;51.280;7.950;2023-05-10T07:46:52;14.88;;;9.90;;
72053;SDS011;59918;51.280;7.950;2023-05-10T07:49:17;17.55;;;10.75;;
72053;SDS011;59918;51.280;7.950;2023-05-10T07:51:42;16.48;;;10.70;;
72053;SDS011;59918;51.280;7.950;2023-05-10T07:54:07;16.42;;;10.35;;
72053;SDS011;59918;51.280;7.950;2023-05-10T07:56:33;14.07;;;11.02;;
72053;SDS011;59918;51.280;7.950;2023-05-10T07:59:02;16.52;;;10.90;;
72053;SDS011;59918;51.280;7.950;2023-05-10T08:01:29;13.90;;;10.40;;
72053;SDS011;59918;51.280;7.950;2023-05-10T08:03:55;14.73;;;10.55;;
72053;SDS011;59918;51.280;7.950;2023-05-10T08:06:28;15.27;;;10.00;;
72053;SDS011;59918;51.280;7.950;2023-05-10T08:08:53;14.15;;;9.70;;
72053;SDS011;59918;51.280;7.950;2023-05-10T08:11:19;16.25;;;10.77;;
72053;SDS011;59918;51.280;7.950;2023-05-10T08:13:45;14.40;;;9.93;;
72053;SDS011;59918;51.280;7.950;2023-05-10T08:16:17;12.95;;;9.27;;
72053;SDS011;59918;51.280;7.950;2023-05-10T08:18:43;11.48;;;8.38;;
72053;SDS011;59918;51.280;7.950;2023-05-10T08:21:09;9.30;;;8.02;;
72053;SDS011;59918;51.280;7.950;2023-05-10T08:23:34;12.73;;;8.77;;
72053;SDS011;59918;51.280;7.950;2023-05-10T08:26:02;10.55;;;8.52;;
72053;SDS011;59918;51.280;7.950;2023-05-10T08:28:27;9.25;;;7.15;;
72053;SDS011;59918;51.280;7.950;2023-05-10T08:30:53;10.65;;;7.68;;
72053;SDS011;59918;51.280;7.950;2023-05-10T08:33:18;11.00;;;7.63;;
72053;SDS011;59918;51.280;7.950;2023-05-10T08:35:45;10.88;;;8.07;;
72053;SDS011;59918;51.280;7.950;2023-05-10T08:38:14;10.68;;;8.02;;
72053;SDS011;59918;51.280;7.950;2023-05-10T08:40:43;9.10;;;7.53;;
72053;SDS011;59918;51.280;7.950;2023-05-10T08:43:11;11.15;;;8.07;;
72053;SDS011;59918;51.280;7.950;2023-05-10T08:45:41;11.38;;;7.90;;
72053;SDS011;59918;51.280;7.950;2023-05-10T08:48:09;9.95;;;7.43;;
72053;SDS011;59918;51.280;7.950;2023-05-10T08:50:39;10.80;;;8.38;;
72053;SDS011;59918;51.280;7.950;2023-05-10T08:53:06;13.23;;;8.85;;
72053;SDS011;59918;51.280;7.950;2023-05-10T08:55:34;10.63;;;8.32;;
72053;SDS011;59918;51.280;7.950;2023-05-10T08:58:04;11.73;;;7.72;;
72053;SDS011;59918;51.280;7.950;2023-05-10T09:00:30;12.00;;;9.57;;
72053;SDS011;59918;51.280;7.950;2023-05-10T09:02:55;11.32;;;8.85;;
72053;SDS011;59918;51.280;7.950;2023-05-10T09:05:21;9.98;;;8.27;;
72053;SDS011;59918;51.280;7.950;2023-05-10T09:07:46;13.38;;;8.60;;
72053;SDS011;59918;51.280;7.950;2023-05-10T09:10:15;10.30;;;9.13;;
72053;SDS011;59918;51.280;7.950;2023-05-10T09:12:40;11.88;;;9.52;;
72053;SDS011;59918;51.280;7.950;2023-05-10T09:15:06;12.60;;;8.80;;
72053;SDS011;59918;51.280;7.950;2023-05-10T09:17:33;13.88;;;9.93;;
72053;SDS011;59918;51.280;7.950;2023-05-10T09:19:59;13.85;;;8.70;;
72053;SDS011;59918;51.280;7.950;2023-05-10T09:22:31;8.68;;;7.72;;
72053;SDS011;59918;51.280;7.950;2023-05-10T09:25:06;9.10;;;7.07;;
72053;SDS011;59918;51.280;7.950;2023-05-10T09:27:32;12.52;;;7.20;;
72053;SDS011;59918;51.280;7.950;2023-05-10T09:29:57;9.50;;;7.07;;
72053;SDS011;59918;51.280;7.950;2023-05-10T09:32:35;7.45;;;6.57;;
72053;SDS011;59918;51.280;7.950;2023-05-10T09:35:10;8.23;;;6.28;;
72053;SDS011;59918;51.280;7.950;2023-05-10T09:37:40;8.82;;;6.50;;
72053;SDS011;59918;51.280;7.950;2023-05-10T09:40:06;8.48;;;6.63;;
72053;SDS011;59918;51.280;7.950;2023-05-10T09:42:33;9.18;;;5.72;;
72053;SDS011;59918;51.280;7.950;2023-05-10T09:45:05;8.18;;;5.70;;
72053;SDS011;59918;51.280;7.950;2023-05-10T09:47:32;5.93;;;5.25;;
72053;SDS011;59918;51.280;7.950;2023-05-10T09:49:58;6.07;;;5.55;;
72053;SDS011;59918;51.280;7.950;2023-05-10T09:52:23;7.95;;;5.50;;
72053;SDS011;59918;51.280;7.950;2023-05-10T09:54:52;7.22;;;5.93;;
72053;SDS011;59918;51.280;7.950;2023-05-10T09:57:19;8.05;;;5.55;;
72053;SDS011;59918;51.280;7.950;2023-05-10T09:59:45;5.55;;;5.03;;
72053;SDS011;59918;51.280;7.950;2023-05-10T10:02:18;8.55;;;6.50;;
72053;SDS011;59918;51.280;7.950;2023-05-10T10:04:44;8.32;;;6.40;;
72053;SDS011;59918;51.280;7.950;2023-05-10T10:07:09;9.32;;;5.90;;
72053;SDS011;59918;51.280;7.950;2023-05-10T10:09:34;12.70;;;7.03;;
72053;SDS011;59918;51.280;7.950;2023-05-10T10:12:00;9.82;;;6.68;;
72053;SDS011;59918;51.280;7.950;2023-05-10T10:14:28;8.52;;;6.60;;
72053;SDS011;59918;51.280;7.950;2023-05-10T10:16:54;10.18;;;6.35;;
72053;SDS011;59918;51.280;7.950;2023-05-10T10:19:19;7.10;;;5.95;;
72053;SDS011;59918;51.280;7.950;2023-05-10T10:21:45;5.55;;;4.82;;
72053;SDS011;59918;51.280;7.950;2023-05-10T10:24:11;6.38;;;4.63;;
72053;SDS011;59918;51.280;7.950;2023-05-10T10:26:39;5.82;;;4.35;;
72053;SDS011;59918;51.280;7.950;2023-05-10T10:32:12;4.53;;;4.00;;
72053;SDS011;59918;51.280;7.950;2023-05-10T10:34:52;4.25;;;3.83;;
72053;SDS011;59918;51.280;7.950;2023-05-10T10:37:19;4.70;;;4.18;;
72053;SDS011;59918;51.280;7.950;2023-05-10T10:39:44;5.18;;;4.00;;
72053;SDS011;59918;51.280;7.950;2023-05-10T10:42:43;6.82;;;4.13;;
72053;SDS011;59918;51.280;7.950;2023-05-10T10:45:16;4.68;;;3.50;;
72053;SDS011;59918;51.280;7.950;2023-05-10T10:47:42;3.42;;;3.15;;
72053;SDS011;59918;51.280;7.950;2023-05-10T10:50:07;3.50;;;2.70;;
72053;SDS011;59918;51.280;7.950;2023-05-10T10:52:40;4.03;;;2.95;;
72053;SDS011;59918;51.280;7.950;2023-05-10T10:55:06;4.95;;;3.20;;
72053;SDS011;59918;51.280;7.950;2023-05-10T10:57:54;2.60;;;2.40;;
72053;SDS011;59918;51.280;7.950;2023-05-10T11:00:31;3.30;;;3.00;;
72053;SDS011;59918;51.280;7.950;2023-05-10T11:03:08;2.85;;;2.53;;
72053;SDS011;59918;51.280;7.950;2023-05-10T11:21:22;3.50;;;3.05;;
72053;SDS011;59918;51.280;7.950;2023-05-10T11:23:49;3.03;;;2.83;;
72053;SDS011;59918;51.280;7.950;2023-05-10T11:26:18;2.50;;;2.30;;
72053;SDS011;59918;51.280;7.950;2023-05-10T11:28:44;2.97;;;2.72;;
72053;SDS011;59918;51.280;7.950;2023-05-10T11:31:10;4.88;;;2.72;;
72053;SDS011;59918;51.280;7.950;2023-05-10T11:33:42;5.53;;;3.38;;
72053;SDS011;59918;51.280;7.950;2023-05-10T11:36:12;4.93;;;3.20;;
72053;SDS011;59918;51.280;7.950;2023-05-10T11:38:40;3.75;;;2.80;;
72053;SDS011;59918;51.280;7.950;2023-05-10T11:41:07;3.53;;;3.08;;
72053;SDS011;59918;51.280;7.950;2023-05-10T11:43:33;4.00;;;3.70;;
72053;SDS011;59918;51.280;7.950;2023-05-10T11:45:58;4.70;;;4.00;;
72053;SDS011;59918;51.280;7.950;2023-05-10T11:48:24;4.93;;;4.40;;
72053;SDS011;59918;51.280;7.950;2023-05-10T11:50:52;3.58;;;3.30;;
72053;SDS011;59918;51.280;7.950;2023-05-10T11:53:17;4.65;;;3.85;;
72053;SDS011;59918;51.280;7.950;2023-05-10T11:55:44;5.35;;;3.45;;
72053;SDS011;59918;51.280;7.950;2023-05-10T11:58:10;4.15;;;3.53;;
72053;SDS011;59918;51.280;7.950;2023-05-10T12:00:35;4.30;;;3.40;;
72053;SDS011;59918;51.280;7.950;2023-05-10T12:03:06;5.10;;;3.35;;
72053;SDS011;59918;51.280;7.950;2023-05-10T12:05:32;5.60;;;4.53;;
72053;SDS011;59918;51.280;7.950;2023-05-10T12:08:20;7.22;;;5.20;;
72053;SDS011;59918;51.280;7.950;2023-05-10T12:10:53;6.82;;;6.10;;
72053;SDS011;59918;51.280;7.950;2023-05-10T12:13:19;10.55;;;7.10;;
72053;SDS011;59918;51.280;7.950;2023-05-10T12:15:45;10.32;;;6.55;;
72053;SDS011;59918;51.280;7.950;2023-05-10T12:18:11;9.10;;;7.20;;
72053;SDS011;59918;51.280;7.950;2023-05-10T12:20:40;10.57;;;7.35;;
72053;SDS011;59918;51.280;7.950;2023-05-10T12:23:08;10.23;;;7.68;;
72053;SDS011;59918;51.280;7.950;2023-05-10T12:25:34;12.50;;;8.85;;
72053;SDS011;59918;51.280;7.950;2023-05-10T12:28:05;13.95;;;9.10;;
72053;SDS011;59918;51.280;7.950;2023-05-10T12:30:33;14.32;;;9.02;;
72053;SDS011;59918;51.280;7.950;2023-05-10T12:33:07;14.88;;;8.68;;
72053;SDS011;59918;51.280;7.950;2023-05-10T12:35:32;12.65;;;8.38;;
72053;SDS011;59918;51.280;7.950;2023-05-10T12:37:58;15.10;;;9.52;;
72053;SDS011;59918;51.280;7.950;2023-05-10T12:40:23;15.73;;;10.70;;
72053;SDS011;59918;51.280;7.950;2023-05-10T12:45:22;17.02;;;11.05;;
72053;SDS011;59918;51.280;7.950;2023-05-10T12:47:47;16.00;;;10.90;;
72053;SDS011;59918;51.280;7.950;2023-05-10T12:50:22;16.85;;;11.63;;
72053;SDS011;59918;51.280;7.950;2023-05-10T12:52:47;15.73;;;11.27;;
72053;SDS011;59918;51.280;7.950;2023-05-10T12:55:12;20.52;;;12.18;;
72053;SDS011;59918;51.280;7.950;2023-05-10T12:57:40;21.35;;;12.13;;
72053;SDS011;59918;51.280;7.950;2023-05-10T13:00:06;18.63;;;11.57;;
72053;SDS011;59918;51.280;7.950;2023-05-10T13:02:32;15.55;;;10.88;;
72053;SDS011;59918;51.280;7.950;2023-05-10T13:04:57;15.95;;;11.80;;
72053;SDS011;59918;51.280;7.950;2023-05-10T13:07:22;16.55;;;11.02;;
72053;SDS011;59918;51.280;7.950;2023-05-10T13:09:47;20.20;;;10.95;;
72053;SDS011;59918;51.280;7.950;2023-05-10T13:12:13;19.65;;;12.45;;
72053;SDS011;59918;51.280;7.950;2023-05-10T13:14:44;18.98;;;12.98;;
72053;SDS011;59918;51.280;7.950;2023-05-10T13:17:09;17.48;;;11.55;;
72053;SDS011;59918;51.280;7.950;2023-05-10T13:19:34;17.38;;;11.80;;
72053;SDS011;59918;51.280;7.950;2023-05-10T13:21:59;17.23;;;11.32;;
72053;SDS011;59918;51.280;7.950;2023-05-10T13:24:25;17.02;;;10.70;;
72053;SDS011;59918;51.280;7.950;2023-05-10T13:26:53;16.27;;;10.95;;
72053;SDS011;59918;51.280;7.950;2023-05-10T13:29:18;14.90;;;9.88;;
72053;SDS011;59918;51.280;7.950;2023-05-10T13:31:43;13.48;;;9.50;;
72053;SDS011;59918;51.280;7.950;2023-05-10T13:34:09;15.25;;;10.75;;
72053;SDS011;59918;51.280;7.950;2023-05-10T13:36:34;17.15;;;10.93;;
72053;SDS011;59918;51.280;7.950;2023-05-10T13:38:59;15.10;;;10.70;;
72053;SDS011;59918;51.280;7.950;2023-05-10T13:41:24;18.13;;;9.70;;
72053;SDS011;59918;51.280;7.950;2023-05-10T13:43:53;13.60;;;9.48;;
72053;SDS011;59918;51.280;7.950;2023-05-10T13:46:18;13.82;;;9.45;;
72053;SDS011;59918;51.280;7.950;2023-05-10T13:48:43;15.07;;;9.00;;
72053;SDS011;59918;51.280;7.950;2023-05-10T13:51:08;13.13;;;9.18;;
72053;SDS011;59918;51.280;7.950;2023-05-10T13:53:34;11.85;;;9.30;;
72053;SDS011;59918;51.280;7.950;2023-05-10T13:55:59;11.88;;;9.13;;
72053;SDS011;59918;51.280;7.950;2023-05-10T13:58:24;15.50;;;9.65;;
72053;SDS011;59918;51.280;7.950;2023-05-10T14:00:56;10.45;;;8.05;;
72053;SDS011;59918;51.280;7.950;2023-05-10T14:03:21;11.68;;;9.10;;
72053;SDS011;59918;51.280;7.950;2023-05-10T14:05:46;12.70;;;8.63;;
72053;SDS011;59918;51.280;7.950;2023-05-10T14:08:11;9.60;;;8.07;;
72053;SDS011;59918;51.280;7.950;2023-05-10T14:10:36;11.95;;;8.80;;
72053;SDS011;59918;51.280;7.950;2023-05-10T14:13:05;7.57;;;6.80;;
72053;SDS011;59918;51.280;7.950;2023-05-10T14:15:30;9.95;;;6.03;;
72053;SDS011;59918;51.280;7.950;2023-05-10T14:17:55;15.43;;;6.75;;
72053;SDS011;59918;51.280;7.950;2023-05-10T14:20:21;9.05;;;6.40;;
72053;SDS011;59918;51.280;7.950;2023-05-10T14:22:46;7.15;;;6.20;;
72053;SDS011;59918;51.280;7.950;2023-05-10T14:25:11;8.70;;;6.30;;
72053;SDS011;59918;51.280;7.950;2023-05-10T14:27:40;10.27;;;6.93;;
72053;SDS011;59918;51.280;7.950;2023-05-10T14:30:06;8.07;;;7.28;;
72053;SDS011;59918;51.280;7.950;2023-05-10T14:32:31;11.13;;;7.70;;
72053;SDS011;59918;51.280;7.950;2023-05-10T14:34:57;8.07;;;6.80;;
72053;SDS011;59918;51.280;7.950;2023-05-10T14:37:22;9.48;;;7.25;;
72053;SDS011;59918;51.280;7.950;2023-05-10T14:39:47;9.23;;;6.70;;
72053;SDS011;59918;51.280;7.950;2023-05-10T14:42:12;8.98;;;7.68;;
72053;SDS011;59918;51.280;7.950;2023-05-10T14:44:40;10.18;;;7.95;;
72053;SDS011;59918;51.280;7.950;2023-05-10T14:47:06;11.43;;;8.55;;
72053;SDS011;59918;51.280;7.950;2023-05-10T14:49:31;9.73;;;7.57;;
72053;SDS011;59918;51.280;7.950;2023-05-10T14:51:56;9.20;;;8.00;;
72053;SDS011;59918;51.280;7.950;2023-05-10T14:54:21;12.63;;;8.30;;
72053;SDS011;59918;51.280;7.950;2023-05-10T14:56:47;14.00;;;8.00;;
72053;SDS011;59918;51.280;7.950;2023-05-10T14:59:12;12.10;;;8.88;;
72053;SDS011;59918;51.280;7.950;2023-05-10T15:01:43;8.75;;;7.15;;
72053;SDS011;59918;51.280;7.950;2023-05-10T15:04:08;12.55;;;7.93;;
72053;SDS011;59918;51.280;7.950;2023-05-10T15:06:34;12.98;;;7.95;;
72053;SDS011;59918;51.280;7.950;2023-05-10T15:09:00;11.75;;;8.02;;
72053;SDS011;59918;51.280;7.950;2023-05-10T15:11:29;7.75;;;6.85;;
72053;SDS011;59918;51.280;7.950;2023-05-10T15:13:54;10.43;;;7.90;;
72053;SDS011;59918;51.280;7.950;2023-05-10T15:16:19;12.00;;;7.45;;
72053;SDS011;59918;51.280;7.950;2023-05-10T15:18:45;11.38;;;7.20;;
72053;SDS011;59918;51.280;7.950;2023-05-10T15:21:10;10.75;;;7.13;;
72053;SDS011;59918;51.280;7.950;2023-05-10T15:23:36;8.75;;;6.18;;
72053;SDS011;59918;51.280;7.950;2023-05-10T15:26:07;9.02;;;7.43;;
72053;SDS011;59918;51.280;7.950;2023-05-10T15:28:33;7.90;;;6.90;;
72053;SDS011;59918;51.280;7.950;2023-05-10T15:30:58;10.32;;;7.55;;
72053;SDS011;59918;51.280;7.950;2023-05-10T15:33:23;10.88;;;7.15;;
72053;SDS011;59918;51.280;7.950;2023-05-10T15:35:48;8.80;;;6.55;;
72053;SDS011;59918;51.280;7.950;2023-05-10T15:38:17;7.82;;;6.93;;